sensor_id;sensor_type;location;lat;lon;timestamp;pressure;altitude;pressure_sealevel;temperature;humidity
48652;BME280;34442;52.362;-1.302;2023-04-05T00:01:08;100969.38;;;8.53;97.74
48652;BME280;34442;52.362;-1.302;2023-04-05T00:03:36;100976.41;;;8.54;97.24
48652;BME280;34442;52.362;-1.302;2023-04-05T00:06:02;100977.91;;;8.57;97.58
48652;BME280;34442;52.362;-1.302;2023-04-05T00:08:29;100978.06;;;8.55;97.90
48652;BME280;34442;52.362;-1.302;2023-04-05T00:10:55;100979.91;;;8.55;98.27
48652;BME280;34442;52.362;-1.302;2023-04-05T00:13:21;100973.09;;;8.52;98.27
48652;BME280;34442;52.362;-1.302;2023-04-05T00:15:47;100966.03;;;8.51;98.31
48652;BME280;34442;52.362;-1.302;2023-04-05T00:18:13;100963.06;;;8.46;98.92
48652;BME280;34442;52.362;-1.302;2023-04-05T00:20:49;100965.41;;;8.49;99.33
48652;BME280;34442;52.362;-1.302;2023-04-05T00:23:15;100964.38;;;8.50;99.91
48652;BME280;34442;52.362;-1.302;2023-04-05T00:25:45;100960.22;;;8.48;99.85
48652;BME280;34442;52.362;-1.302;2023-04-05T00:28:11;100958.25;;;8.41;100.00
48652;BME280;34442;52.362;-1.302;2023-04-05T00:30:37;100963.63;;;8.33;100.00
48652;BME280;34442;52.362;-1.302;2023-04-05T00:33:03;100955.94;;;8.30;100.00
48652;BME280;34442;52.362;-1.302;2023-04-05T00:35:28;100959.16;;;8.26;100.00
48652;BME280;34442;52.362;-1.302;2023-04-05T00:37:55;100952.19;;;8.16;100.00
48652;BME280;34442;52.362;-1.302;2023-04-05T00:40:23;100944.19;;;8.08;100.00
48652;BME280;34442;52.362;-1.302;2023-04-05T00:42:49;100954.78;;;8.02;100.00
48652;BME280;34442;52.362;-1.302;2023-04-05T00:45:14;100942.75;;;7.97;100.00
48652;BME280;34442;52.362;-1.302;2023-04-05T00:47:41;100932.22;;;7.96;100.00
48652;BME280;34442;52.362;-1.302;2023-04-05T00:50:08;100943.56;;;7.98;100.00
48652;BME280;34442;52.362;-1.302;2023-04-05T00:52:35;100935.88;;;8.03;100.00
48652;BME280;34442;52.362;-1.302;2023-04-05T00:55:03;100929.69;;;8.03;100.00
48652;BME280;34442;52.362;-1.302;2023-04-05T00:57:30;100929.50;;;8.04;100.00
48652;BME280;34442;52.362;-1.302;2023-04-05T00:59:59;100921.75;;;8.09;100.00
48652;BME280;34442;52.362;-1.302;2023-04-05T01:02:34;100922.91;;;8.15;100.00
48652;BME280;34442;52.362;-1.302;2023-04-05T01:05:18;100916.69;;;8.14;100.00
48652;BME280;34442;52.362;-1.302;2023-04-05T01:07:50;100917.91;;;8.12;100.00
48652;BME280;34442;52.362;-1.302;2023-04-05T01:10:21;100925.41;;;8.16;100.00
48652;BME280;34442;52.362;-1.302;2023-04-05T01:12:46;100926.78;;;8.12;100.00
48652;BME280;34442;52.362;-1.302;2023-04-05T01:15:13;100921.56;;;8.19;100.00
48652;BME280;34442;52.362;-1.302;2023-04-05T01:17:38;100923.03;;;8.21;100.00
48652;BME280;34442;52.362;-1.302;2023-04-05T01:20:06;100921.66;;;8.26;100.00
48652;BME280;34442;52.362;-1.302;2023-04-05T01:30:29;100906.47;;;8.18;100.00
48652;BME280;34442;52.362;-1.302;2023-04-05T01:35:38;100898.38;;;8.26;100.00
48652;BME280;34442;52.362;-1.302;2023-04-05T01:38:08;100900.72;;;8.29;100.00
48652;BME280;34442;52.362;-1.302;2023-04-05T01:40:35;100894.72;;;8.27;100.00
48652;BME280;34442;52.362;-1.302;2023-04-05T01:43:11;100905.22;;;8.29;100.00
48652;BME280;34442;52.362;-1.302;2023-04-05T01:45:37;100896.38;;;8.28;100.00
48652;BME280;34442;52.362;-1.302;2023-04-05T01:48:03;100903.38;;;8.29;100.00
48652;BME280;34442;52.362;-1.302;2023-04-05T01:50:28;100894.38;;;8.22;100.00
48652;BME280;34442;52.362;-1.302;2023-04-05T01:52:53;100891.38;;;8.25;100.00
48652;BME280;34442;52.362;-1.302;2023-04-05T01:55:19;100881.13;;;8.29;100.00
48652;BME280;34442;52.362;-1.302;2023-04-05T01:57:44;100884.00;;;8.27;100.00
48652;BME280;34442;52.362;-1.302;2023-04-05T02:00:10;100886.69;;;8.27;100.00
48652;BME280;34442;52.362;-1.302;2023-04-05T02:02:36;100876.13;;;8.26;100.00
48652;BME280;34442;52.362;-1.302;2023-04-05T02:05:01;100873.28;;;8.27;100.00
48652;BME280;34442;52.362;-1.302;2023-04-05T02:07:27;100869.59;;;8.28;100.00
48652;BME280;34442;52.362;-1.302;2023-04-05T02:09:52;100873.91;;;8.29;100.00
48652;BME280;34442;52.362;-1.302;2023-04-05T02:12:17;100877.06;;;8.33;100.00
48652;BME280;34442;52.362;-1.302;2023-04-05T02:14:43;100859.50;;;8.30;100.00
48652;BME280;34442;52.362;-1.302;2023-04-05T02:17:08;100865.06;;;8.29;100.00
48652;BME280;34442;52.362;-1.302;2023-04-05T02:19:33;100864.38;;;8.27;100.00
48652;BME280;34442;52.362;-1.302;2023-04-05T02:22:07;100853.69;;;8.27;100.00
48652;BME280;34442;52.362;-1.302;2023-04-05T02:24:33;100852.84;;;8.26;100.00
48652;BME280;34442;52.362;-1.302;2023-04-05T02:26:59;100855.59;;;8.18;100.00
48652;BME280;34442;52.362;-1.302;2023-04-05T02:29:25;100852.69;;;8.28;100.00
48652;BME280;34442;52.362;-1.302;2023-04-05T02:31:50;100855.16;;;8.29;100.00
48652;BME280;34442;52.362;-1.302;2023-04-05T02:34:15;100837.25;;;8.30;100.00
48652;BME280;34442;52.362;-1.302;2023-04-05T02:36:41;100844.09;;;8.32;100.00
48652;BME280;34442;52.362;-1.302;2023-04-05T02:39:08;100849.94;;;8.36;100.00
48652;BME280;34442;52.362;-1.302;2023-04-05T02:41:35;100844.22;;;8.39;100.00
48652;BME280;34442;52.362;-1.302;2023-04-05T02:44:00;100845.09;;;8.39;100.00
48652;BME280;34442;52.362;-1.302;2023-04-05T02:46:26;100835.88;;;8.34;100.00
48652;BME280;34442;52.362;-1.302;2023-04-05T02:48:51;100836.72;;;8.34;100.00
48652;BME280;34442;52.362;-1.302;2023-04-05T02:51:17;100832.19;;;8.35;100.00
48652;BME280;34442;52.362;-1.302;2023-04-05T02:53:42;100828.50;;;8.36;100.00
48652;BME280;34442;52.362;-1.302;2023-04-05T02:56:09;100827.19;;;8.32;100.00
48652;BME280;34442;52.362;-1.302;2023-04-05T02:58:38;100828.38;;;8.29;100.00
48652;BME280;34442;52.362;-1.302;2023-04-05T03:01:03;100827.09;;;8.25;100.00
48652;BME280;34442;52.362;-1.302;2023-04-05T03:03:32;100827.00;;;8.33;100.00
48652;BME280;34442;52.362;-1.302;2023-04-05T03:06:05;100827.69;;;8.35;100.00
48652;BME280;34442;52.362;-1.302;2023-04-05T03:08:38;100828.19;;;8.31;100.00
48652;BME280;34442;52.362;-1.302;2023-04-05T03:11:11;100826.72;;;8.28;100.00
48652;BME280;34442;52.362;-1.302;2023-04-05T03:13:37;100830.44;;;8.27;100.00
48652;BME280;34442;52.362;-1.302;2023-04-05T03:16:03;100822.19;;;8.29;100.00
48652;BME280;34442;52.362;-1.302;2023-04-05T03:18:28;100815.53;;;8.25;100.00
48652;BME280;34442;52.362;-1.302;2023-04-05T03:20:55;100817.88;;;8.28;100.00
48652;BME280;34442;52.362;-1.302;2023-04-05T03:23:23;100813.50;;;8.27;100.00
48652;BME280;34442;52.362;-1.302;2023-04-05T03:28:23;100820.41;;;8.21;100.00
48652;BME280;34442;52.362;-1.302;2023-04-05T03:30:48;100816.72;;;8.22;100.00
48652;BME280;34442;52.362;-1.302;2023-04-05T03:33:14;100816.91;;;8.20;100.00
48652;BME280;34442;52.362;-1.302;2023-04-05T03:35:39;100808.69;;;8.22;100.00
48652;BME280;34442;52.362;-1.302;2023-04-05T03:38:05;100817.38;;;8.24;100.00
48652;BME280;34442;52.362;-1.302;2023-04-05T03:40:31;100813.06;;;8.23;100.00
48652;BME280;34442;52.362;-1.302;2023-04-05T03:42:56;100808.88;;;8.20;100.00
48652;BME280;34442;52.362;-1.302;2023-04-05T03:45:22;100807.22;;;8.19;100.00
48652;BME280;34442;52.362;-1.302;2023-04-05T03:47:47;100810.72;;;8.20;100.00
48652;BME280;34442;52.362;-1.302;2023-04-05T03:50:13;100804.69;;;8.18;100.00
48652;BME280;34442;52.362;-1.302;2023-04-05T03:52:38;100809.72;;;8.21;100.00
48652;BME280;34442;52.362;-1.302;2023-04-05T03:55:04;100805.09;;;8.15;100.00
48652;BME280;34442;52.362;-1.302;2023-04-05T03:57:30;100799.81;;;8.21;100.00
48652;BME280;34442;52.362;-1.302;2023-04-05T03:59:55;100788.28;;;8.21;100.00
48652;BME280;34442;52.362;-1.302;2023-04-05T04:02:20;100787.16;;;8.15;100.00
48652;BME280;34442;52.362;-1.302;2023-04-05T04:04:46;100781.81;;;8.15;100.00
48652;BME280;34442;52.362;-1.302;2023-04-05T04:07:12;100777.66;;;8.13;100.00
48652;BME280;34442;52.362;-1.302;2023-04-05T04:09:37;100775.31;;;8.10;100.00
48652;BME280;34442;52.362;-1.302;2023-04-05T04:12:03;100781.41;;;8.04;100.00
48652;BME280;34442;52.362;-1.302;2023-04-05T04:14:28;100776.41;;;8.01;100.00
48652;BME280;34442;52.362;-1.302;2023-04-05T04:16:54;100778.59;;;7.97;100.00
48652;BME280;34442;52.362;-1.302;2023-04-05T04:19:19;100770.94;;;7.94;100.00
48652;BME280;34442;52.362;-1.302;2023-04-05T04:21:45;100770.84;;;7.87;100.00
48652;BME280;34442;52.362;-1.302;2023-04-05T04:24:16;100778.19;;;7.85;100.00
48652;BME280;34442;52.362;-1.302;2023-04-05T04:26:47;100767.69;;;7.84;100.00
48652;BME280;34442;52.362;-1.302;2023-04-05T04:29:13;100770.22;;;7.77;100.00
48652;BME280;34442;52.362;-1.302;2023-04-05T04:31:41;100770.94;;;7.71;100.00
48652;BME280;34442;52.362;-1.302;2023-04-05T04:34:12;100769.16;;;7.63;100.00
48652;BME280;34442;52.362;-1.302;2023-04-05T04:36:39;100762.50;;;7.59;100.00
48652;BME280;34442;52.362;-1.302;2023-04-05T04:39:07;100766.34;;;7.57;100.00
48652;BME280;34442;52.362;-1.302;2023-04-05T04:41:34;100767.38;;;7.56;100.00
48652;BME280;34442;52.362;-1.302;2023-04-05T04:44:00;100762.56;;;7.51;100.00
48652;BME280;34442;52.362;-1.302;2023-04-05T04:46:30;100761.72;;;7.51;100.00
48652;BME280;34442;52.362;-1.302;2023-04-05T04:49:00;100761.06;;;7.49;100.00
48652;BME280;34442;52.362;-1.302;2023-04-05T04:51:30;100761.06;;;7.49;100.00
48652;BME280;34442;52.362;-1.302;2023-04-05T04:53:56;100756.91;;;7.46;100.00
48652;BME280;34442;52.362;-1.302;2023-04-05T04:56:24;100758.75;;;7.45;100.00
48652;BME280;34442;52.362;-1.302;2023-04-05T04:58:49;100754.94;;;7.40;100.00
48652;BME280;34442;52.362;-1.302;2023-04-05T05:01:14;100755.59;;;7.42;100.00
48652;BME280;34442;52.362;-1.302;2023-04-05T05:03:41;100750.06;;;7.43;100.00
48652;BME280;34442;52.362;-1.302;2023-04-05T05:06:07;100758.28;;;7.42;100.00
48652;BME280;34442;52.362;-1.302;2023-04-05T05:08:32;100751.25;;;7.41;100.00
48652;BME280;34442;52.362;-1.302;2023-04-05T05:10:59;100756.97;;;7.38;100.00
48652;BME280;34442;52.362;-1.302;2023-04-05T05:13:25;100752.63;;;7.37;100.00
48652;BME280;34442;52.362;-1.302;2023-04-05T05:15:50;100751.75;;;7.36;100.00
48652;BME280;34442;52.362;-1.302;2023-04-05T05:18:17;100748.44;;;7.34;100.00
48652;BME280;34442;52.362;-1.302;2023-04-05T05:20:42;100754.16;;;7.31;100.00
48652;BME280;34442;52.362;-1.302;2023-04-05T05:23:07;100758.47;;;7.32;100.00
48652;BME280;34442;52.362;-1.302;2023-04-05T05:25:33;100753.66;;;7.28;100.00
48652;BME280;34442;52.362;-1.302;2023-04-05T05:27:58;100754.16;;;7.31;100.00
48652;BME280;34442;52.362;-1.302;2023-04-05T05:30:24;100752.97;;;7.34;100.00
48652;BME280;34442;52.362;-1.302;2023-04-05T05:32:51;100753.50;;;7.29;100.00
48652;BME280;34442;52.362;-1.302;2023-04-05T05:35:17;100756.34;;;7.28;100.00
48652;BME280;34442;52.362;-1.302;2023-04-05T05:37:42;100755.16;;;7.30;100.00
48652;BME280;34442;52.362;-1.302;2023-04-05T05:40:09;100754.16;;;7.31;100.00
48652;BME280;34442;52.362;-1.302;2023-04-05T05:42:37;100747.66;;;7.26;100.00
48652;BME280;34442;52.362;-1.302;2023-04-05T05:45:04;100758.38;;;7.26;100.00
48652;BME280;34442;52.362;-1.302;2023-04-05T05:47:31;100755.69;;;7.26;100.00
48652;BME280;34442;52.362;-1.302;2023-04-05T05:49:56;100758.19;;;7.27;100.00
48652;BME280;34442;52.362;-1.302;2023-04-05T05:52:22;100753.50;;;7.29;100.00
48652;BME280;34442;52.362;-1.302;2023-04-05T05:54:47;100753.81;;;7.34;100.00
48652;BME280;34442;52.362;-1.302;2023-04-05T05:57:13;100749.63;;;7.32;100.00
48652;BME280;34442;52.362;-1.302;2023-04-05T05:59:38;100756.47;;;7.34;100.00
48652;BME280;34442;52.362;-1.302;2023-04-05T06:02:06;100756.00;;;7.31;100.00
48652;BME280;34442;52.362;-1.302;2023-04-05T06:04:31;100754.34;;;7.30;100.00
48652;BME280;34442;52.362;-1.302;2023-04-05T06:06:58;100751.13;;;7.34;100.00
48652;BME280;34442;52.362;-1.302;2023-04-05T06:09:26;100751.94;;;7.35;100.00
48652;BME280;34442;52.362;-1.302;2023-04-05T06:11:53;100741.44;;;7.33;100.00
48652;BME280;34442;52.362;-1.302;2023-04-05T06:14:19;100749.47;;;7.33;100.00
48652;BME280;34442;52.362;-1.302;2023-04-05T06:16:44;100749.75;;;7.38;100.00
48652;BME280;34442;52.362;-1.302;2023-04-05T06:19:10;100754.38;;;7.44;100.00
48652;BME280;34442;52.362;-1.302;2023-04-05T06:21:36;100746.69;;;7.50;100.00
48652;BME280;34442;52.362;-1.302;2023-04-05T06:24:01;100751.31;;;7.56;100.00
48652;BME280;34442;52.362;-1.302;2023-04-05T06:26:27;100748.63;;;7.56;100.00
48652;BME280;34442;52.362;-1.302;2023-04-05T06:28:54;100740.31;;;7.51;100.00
48652;BME280;34442;52.362;-1.302;2023-04-05T06:31:34;100753.66;;;7.59;100.00
48652;BME280;34442;52.362;-1.302;2023-04-05T06:34:00;100749.94;;;7.60;100.00
48652;BME280;34442;52.362;-1.302;2023-04-05T06:36:25;100751.25;;;7.64;100.00
48652;BME280;34442;52.362;-1.302;2023-04-05T06:38:51;100743.22;;;7.64;100.00
48652;BME280;34442;52.362;-1.302;2023-04-05T06:41:17;100746.09;;;7.62;100.00
48652;BME280;34442;52.362;-1.302;2023-04-05T06:43:43;100735.75;;;7.59;100.00
48652;BME280;34442;52.362;-1.302;2023-04-05T06:46:08;100739.59;;;7.57;100.00
48652;BME280;34442;52.362;-1.302;2023-04-05T06:48:36;100742.88;;;7.67;100.00
48652;BME280;34442;52.362;-1.302;2023-04-05T06:51:05;100741.88;;;7.68;100.00
48652;BME280;34442;52.362;-1.302;2023-04-05T06:53:30;100743.84;;;7.74;100.00
48652;BME280;34442;52.362;-1.302;2023-04-05T06:55:57;100735.56;;;7.84;100.00
48652;BME280;34442;52.362;-1.302;2023-04-05T06:58:26;100739.06;;;7.84;100.00
48652;BME280;34442;52.362;-1.302;2023-04-05T07:00:52;100733.84;;;7.91;100.00
48652;BME280;34442;52.362;-1.302;2023-04-05T07:03:18;100738.81;;;7.94;100.00
48652;BME280;34442;52.362;-1.302;2023-04-05T07:05:54;100736.91;;;8.03;100.00
48652;BME280;34442;52.362;-1.302;2023-04-05T07:08:21;100738.94;;;8.01;100.00
48652;BME280;34442;52.362;-1.302;2023-04-05T07:10:47;100736.25;;;8.01;100.00
48652;BME280;34442;52.362;-1.302;2023-04-05T07:13:13;100736.94;;;8.17;100.00
48652;BME280;34442;52.362;-1.302;2023-04-05T07:15:39;100746.09;;;8.23;100.00
48652;BME280;34442;52.362;-1.302;2023-04-05T07:18:07;100746.19;;;8.30;100.00
48652;BME280;34442;52.362;-1.302;2023-04-05T07:20:33;100737.59;;;8.34;100.00
48652;BME280;34442;52.362;-1.302;2023-04-05T07:22:58;100730.72;;;8.40;100.00
48652;BME280;34442;52.362;-1.302;2023-04-05T07:25:24;100739.03;;;8.45;100.00
48652;BME280;34442;52.362;-1.302;2023-04-05T07:27:50;100744.09;;;8.55;100.00
48652;BME280;34442;52.362;-1.302;2023-04-05T07:30:17;100732.66;;;8.61;100.00
48652;BME280;34442;52.362;-1.302;2023-04-05T07:32:42;100737.19;;;8.75;100.00
48652;BME280;34442;52.362;-1.302;2023-04-05T07:35:08;100736.06;;;8.84;100.00
48652;BME280;34442;52.362;-1.302;2023-04-05T07:37:34;100732.91;;;8.95;100.00
48652;BME280;34442;52.362;-1.302;2023-04-05T07:40:00;100724.75;;;9.04;100.00
48652;BME280;34442;52.362;-1.302;2023-04-05T07:42:26;100721.78;;;9.13;100.00
48652;BME280;34442;52.362;-1.302;2023-04-05T07:44:56;100717.03;;;9.30;100.00
48652;BME280;34442;52.362;-1.302;2023-04-05T07:47:21;100722.69;;;9.42;100.00
48652;BME280;34442;52.362;-1.302;2023-04-05T07:49:46;100720.88;;;9.42;100.00
48652;BME280;34442;52.362;-1.302;2023-04-05T07:52:12;100720.66;;;9.44;100.00
48652;BME280;34442;52.362;-1.302;2023-04-05T07:54:37;100721.50;;;9.44;100.00
48652;BME280;34442;52.362;-1.302;2023-04-05T07:57:04;100719.84;;;9.65;100.00
48652;BME280;34442;52.362;-1.302;2023-04-05T07:59:30;100719.38;;;9.61;100.00
48652;BME280;34442;52.362;-1.302;2023-04-05T08:01:56;100720.53;;;9.74;100.00
48652;BME280;34442;52.362;-1.302;2023-04-05T08:04:21;100722.63;;;9.78;100.00
48652;BME280;34442;52.362;-1.302;2023-04-05T08:06:47;100712.22;;;9.68;100.00
48652;BME280;34442;52.362;-1.302;2023-04-05T08:09:13;100717.53;;;9.62;100.00
48652;BME280;34442;52.362;-1.302;2023-04-05T08:11:39;100718.56;;;9.61;100.00
48652;BME280;34442;52.362;-1.302;2023-04-05T08:14:07;100717.16;;;9.65;100.00
48652;BME280;34442;52.362;-1.302;2023-04-05T08:16:33;100712.94;;;9.77;100.00
48652;BME280;34442;52.362;-1.302;2023-04-05T08:18:59;100720.41;;;9.82;100.00
48652;BME280;34442;52.362;-1.302;2023-04-05T08:21:25;100727.25;;;9.84;100.00
48652;BME280;34442;52.362;-1.302;2023-04-05T08:23:50;100719.44;;;9.89;100.00
48652;BME280;34442;52.362;-1.302;2023-04-05T08:26:16;100714.56;;;10.00;100.00
48652;BME280;34442;52.362;-1.302;2023-04-05T08:28:42;100717.50;;;10.05;100.00
48652;BME280;34442;52.362;-1.302;2023-04-05T08:31:07;100713.41;;;10.09;100.00
48652;BME280;34442;52.362;-1.302;2023-04-05T08:33:33;100711.31;;;10.04;100.00
48652;BME280;34442;52.362;-1.302;2023-04-05T08:36:05;100706.75;;;10.05;100.00
48652;BME280;34442;52.362;-1.302;2023-04-05T08:38:34;100713.41;;;10.09;100.00
48652;BME280;34442;52.362;-1.302;2023-04-05T08:41:16;100706.84;;;10.18;100.00
48652;BME280;34442;52.362;-1.302;2023-04-05T08:44:00;100709.75;;;10.16;100.00
48652;BME280;34442;52.362;-1.302;2023-04-05T08:46:31;100700.69;;;10.24;100.00
48652;BME280;34442;52.362;-1.302;2023-04-05T08:48:57;100706.78;;;10.33;100.00
48652;BME280;34442;52.362;-1.302;2023-04-05T08:51:24;100701.66;;;10.44;100.00
48652;BME280;34442;52.362;-1.302;2023-04-05T08:53:50;100705.91;;;10.60;100.00
48652;BME280;34442;52.362;-1.302;2023-04-05T08:56:21;100705.06;;;10.60;100.00
48652;BME280;34442;52.362;-1.302;2023-04-05T08:59:05;100706.09;;;10.59;100.00
48652;BME280;34442;52.362;-1.302;2023-04-05T09:01:33;100714.88;;;10.74;100.00
48652;BME280;34442;52.362;-1.302;2023-04-05T09:04:17;100710.34;;;10.81;100.00
48652;BME280;34442;52.362;-1.302;2023-04-05T09:06:46;100706.88;;;10.87;100.00
48652;BME280;34442;52.362;-1.302;2023-04-05T09:09:14;100699.22;;;10.91;100.00
48652;BME280;34442;52.362;-1.302;2023-04-05T09:11:42;100699.84;;;10.93;100.00
48652;BME280;34442;52.362;-1.302;2023-04-05T09:14:08;100692.84;;;10.99;100.00
48652;BME280;34442;52.362;-1.302;2023-04-05T09:16:39;100700.50;;;11.02;100.00
48652;BME280;34442;52.362;-1.302;2023-04-05T09:19:06;100696.59;;;11.11;100.00
48652;BME280;34442;52.362;-1.302;2023-04-05T09:22:07;100697.84;;;11.15;100.00
48652;BME280;34442;52.362;-1.302;2023-04-05T09:24:33;100697.47;;;11.31;100.00
48652;BME280;34442;52.362;-1.302;2023-04-05T09:27:24;100702.09;;;11.44;100.00
48652;BME280;34442;52.362;-1.302;2023-04-05T09:29:49;100704.56;;;11.52;100.00
48652;BME280;34442;52.362;-1.302;2023-04-05T09:32:15;100695.66;;;11.58;100.00
48652;BME280;34442;52.362;-1.302;2023-04-05T09:34:42;100694.19;;;11.56;100.00
48652;BME280;34442;52.362;-1.302;2023-04-05T09:37:19;100692.78;;;11.53;100.00
48652;BME280;34442;52.362;-1.302;2023-04-05T09:39:49;100690.91;;;11.60;100.00
48652;BME280;34442;52.362;-1.302;2023-04-05T09:42:19;100687.41;;;11.73;100.00
48652;BME280;34442;52.362;-1.302;2023-04-05T09:44:54;100692.16;;;11.64;100.00
48652;BME280;34442;52.362;-1.302;2023-04-05T09:47:24;100697.13;;;11.67;100.00
48652;BME280;34442;52.362;-1.302;2023-04-05T09:49:51;100689.66;;;11.76;100.00
48652;BME280;34442;52.362;-1.302;2023-04-05T09:52:24;100684.72;;;11.93;100.00
48652;BME280;34442;52.362;-1.302;2023-04-05T09:54:52;100684.53;;;11.88;100.00
48652;BME280;34442;52.362;-1.302;2023-04-05T09:57:21;100699.63;;;11.82;100.00
48652;BME280;34442;52.362;-1.302;2023-04-05T09:59:47;100683.25;;;11.77;100.00
48652;BME280;34442;52.362;-1.302;2023-04-05T10:02:13;100692.34;;;11.63;100.00
48652;BME280;34442;52.362;-1.302;2023-04-05T10:04:43;100686.38;;;11.74;100.00
48652;BME280;34442;52.362;-1.302;2023-04-05T10:07:11;100691.53;;;11.62;100.00
48652;BME280;34442;52.362;-1.302;2023-04-05T10:09:41;100685.91;;;11.51;100.00
48652;BME280;34442;52.362;-1.302;2023-04-05T10:12:08;100689.22;;;11.33;100.00
48652;BME280;34442;52.362;-1.302;2023-04-05T10:14:34;100688.34;;;11.19;100.00
48652;BME280;34442;52.362;-1.302;2023-04-05T10:17:08;100688.34;;;11.12;100.00
48652;BME280;34442;52.362;-1.302;2023-04-05T10:20:13;100688.31;;;11.06;100.00
48652;BME280;34442;52.362;-1.302;2023-04-05T10:28:11;100686.44;;;11.06;100.00
48652;BME280;34442;52.362;-1.302;2023-04-05T10:30:44;100689.13;;;11.06;100.00
48652;BME280;34442;52.362;-1.302;2023-04-05T10:33:28;100678.81;;;11.16;100.00
48652;BME280;34442;52.362;-1.302;2023-04-05T10:38:35;100681.94;;;11.20;100.00
48652;BME280;34442;52.362;-1.302;2023-04-05T10:41:09;100678.63;;;11.25;100.00
48652;BME280;34442;52.362;-1.302;2023-04-05T10:43:38;100670.16;;;11.34;100.00
48652;BME280;34442;52.362;-1.302;2023-04-05T10:46:06;100671.81;;;11.35;100.00
48652;BME280;34442;52.362;-1.302;2023-04-05T10:51:32;100672.63;;;11.29;100.00
48652;BME280;34442;52.362;-1.302;2023-04-05T10:53:59;100671.81;;;11.35;100.00
48652;BME280;34442;52.362;-1.302;2023-04-05T10:56:25;100671.19;;;11.20;100.00
48652;BME280;34442;52.362;-1.302;2023-04-05T10:58:52;100669.72;;;11.31;100.00
48652;BME280;34442;52.362;-1.302;2023-04-05T11:01:19;100667.66;;;11.26;100.00
48652;BME280;34442;52.362;-1.302;2023-04-05T11:03:49;100658.34;;;11.35;100.00
48652;BME280;34442;52.362;-1.302;2023-04-05T11:06:19;100660.25;;;11.41;100.00
48652;BME280;34442;52.362;-1.302;2023-04-05T11:08:46;100650.91;;;11.37;100.00
48652;BME280;34442;52.362;-1.302;2023-04-05T11:11:16;100656.72;;;11.41;100.00
48652;BME280;34442;52.362;-1.302;2023-04-05T11:13:56;100657.13;;;11.38;100.00
48652;BME280;34442;52.362;-1.302;2023-04-05T11:16:23;100646.78;;;11.48;100.00
48652;BME280;34442;52.362;-1.302;2023-04-05T11:19:02;100651.16;;;11.69;100.00
48652;BME280;34442;52.362;-1.302;2023-04-05T11:21:28;100649.31;;;11.83;100.00
48652;BME280;34442;52.362;-1.302;2023-04-05T11:24:01;100642.25;;;11.88;100.00
48652;BME280;34442;52.362;-1.302;2023-04-05T11:29:16;100638.91;;;11.80;100.00
48652;BME280;34442;52.362;-1.302;2023-04-05T11:31:58;100631.47;;;12.02;100.00
48652;BME280;34442;52.362;-1.302;2023-04-05T11:34:24;100628.94;;;12.13;100.00
48652;BME280;34442;52.362;-1.302;2023-04-05T11:36:50;100628.09;;;12.13;100.00
48652;BME280;34442;52.362;-1.302;2023-04-05T11:41:48;100634.97;;;11.89;100.00
48652;BME280;34442;52.362;-1.302;2023-04-05T11:44:17;100625.03;;;12.03;100.00
48652;BME280;34442;52.362;-1.302;2023-04-05T11:46:45;100626.66;;;12.17;100.00
48652;BME280;34442;52.362;-1.302;2023-04-05T11:49:11;100621.09;;;11.99;100.00
48652;BME280;34442;52.362;-1.302;2023-04-05T11:51:39;100616.31;;;11.67;100.00
48652;BME280;34442;52.362;-1.302;2023-04-05T11:54:06;100618.00;;;11.88;100.00
48652;BME280;34442;52.362;-1.302;2023-04-05T11:56:32;100614.66;;;12.00;100.00
48652;BME280;34442;52.362;-1.302;2023-04-05T11:58:58;100610.13;;;11.87;100.00
48652;BME280;34442;52.362;-1.302;2023-04-05T12:01:23;100618.41;;;11.65;100.00
48652;BME280;34442;52.362;-1.302;2023-04-05T12:03:56;100612.81;;;11.67;100.00
48652;BME280;34442;52.362;-1.302;2023-04-05T12:06:22;100615.72;;;11.59;100.00
48652;BME280;34442;52.362;-1.302;2023-04-05T12:08:49;100605.38;;;11.36;100.00
48652;BME280;34442;52.362;-1.302;2023-04-05T12:11:16;100608.03;;;11.29;100.00
48652;BME280;34442;52.362;-1.302;2023-04-05T12:13:47;100607.81;;;11.17;100.00
48652;BME280;34442;52.362;-1.302;2023-04-05T12:16:13;100604.28;;;11.10;100.00
48652;BME280;34442;52.362;-1.302;2023-04-05T12:18:38;100606.97;;;11.04;100.00
48652;BME280;34442;52.362;-1.302;2023-04-05T12:21:06;100594.56;;;11.09;100.00
48652;BME280;34442;52.362;-1.302;2023-04-05T12:23:32;100599.72;;;11.11;100.00
48652;BME280;34442;52.362;-1.302;2023-04-05T12:25:58;100595.19;;;11.11;100.00
48652;BME280;34442;52.362;-1.302;2023-04-05T12:28:24;100596.44;;;11.22;100.00
48652;BME280;34442;52.362;-1.302;2023-04-05T12:30:51;100600.38;;;11.20;100.00
48652;BME280;34442;52.362;-1.302;2023-04-05T12:35:52;100592.50;;;11.11;100.00
48652;BME280;34442;52.362;-1.302;2023-04-05T12:38:18;100585.88;;;11.07;100.00
48652;BME280;34442;52.362;-1.302;2023-04-05T12:40:44;100591.47;;;11.12;100.00
48652;BME280;34442;52.362;-1.302;2023-04-05T12:43:10;100588.34;;;11.09;100.00
48652;BME280;34442;52.362;-1.302;2023-04-05T12:45:35;100587.31;;;11.10;100.00
48652;BME280;34442;52.362;-1.302;2023-04-05T12:48:08;100582.56;;;11.25;100.00
48652;BME280;34442;52.362;-1.302;2023-04-05T12:50:44;100584.44;;;11.25;100.00
48652;BME280;34442;52.362;-1.302;2023-04-05T12:53:18;100569.31;;;11.30;100.00
48652;BME280;34442;52.362;-1.302;2023-04-05T12:55:49;100572.84;;;11.24;100.00
48652;BME280;34442;52.362;-1.302;2023-04-05T12:58:16;100571.38;;;11.15;100.00
48652;BME280;34442;52.362;-1.302;2023-04-05T13:00:42;100569.09;;;11.18;100.00
48652;BME280;34442;52.362;-1.302;2023-04-05T13:03:14;100564.34;;;11.21;100.00
48652;BME280;34442;52.362;-1.302;2023-04-05T13:05:40;100563.31;;;11.41;100.00
48652;BME280;34442;52.362;-1.302;2023-04-05T13:08:06;100568.72;;;11.61;100.00
48652;BME280;34442;52.362;-1.302;2023-04-05T13:10:32;100559.81;;;11.61;100.00
48652;BME280;34442;52.362;-1.302;2023-04-05T13:12:57;100559.56;;;11.56;100.00